Time;durP1;ratioP1;P1;durP2;ratioP2;P2;SDS_P1;SDS_P2;PMS_P1;PMS_P2;Temp;Humidity;BMP_temperature;BMP_pressure;BME280_temperature;BME280_humidity;BME280_pressure;Samples;Min_cycle;Max_cycle;Signal;HPM_P1;HPM_P2
2022/06/12 00:00:35;;;;;;;15.52;5.38;;;14.50;99.90;;;;;;5054492;28;20037;-83
2022/06/12 00:03:04;;;;;;;11.02;4.05;;;14.50;99.90;;;;;;5053928;28;20063;-82
2022/06/12 00:05:33;;;;;;;13.05;4.75;;;14.50;99.90;;;;;;5038253;28;20040;-83
2022/06/12 00:07:59;;;;;;;13.18;4.68;;;14.40;99.90;;;;;;5054311;28;20032;-82
2022/06/12 00:10:25;;;;;;;12.50;3.53;;;14.40;99.90;;;;;;5053745;28;20169;-83
2022/06/12 00:12:50;;;;;;;13.20;3.85;;;14.30;99.90;;;;;;5054255;28;20055;-83
2022/06/12 00:15:19;;;;;;;10.02;3.83;;;14.20;99.90;;;;;;5053598;28;20044;-83
2022/06/12 00:17:45;;;;;;;15.88;5.38;;;14.20;99.90;;;;;;5054136;28;20525;-82
2022/06/12 00:20:13;;;;;;;11.55;3.97;;;14.20;99.90;;;;;;5053752;28;20032;-83
2022/06/12 00:22:40;;;;;;;12.82;4.70;;;14.10;99.90;;;;;;5037623;28;20041;-83
2022/06/12 00:25:09;;;;;;;12.05;4.55;;;14.10;99.90;;;;;;5053150;28;20473;-83
2022/06/12 00:27:36;;;;;;;12.05;3.78;;;14.20;99.90;;;;;;5036447;28;20032;-82
2022/06/12 00:30:04;;;;;;;15.48;5.65;;;14.10;99.90;;;;;;5037064;28;20029;-82
2022/06/12 00:32:30;;;;;;;13.63;3.90;;;14.20;99.90;;;;;;5036907;28;20041;-82
2022/06/12 00:34:57;;;;;;;15.57;4.72;;;14.20;99.90;;;;;;5053586;28;20048;-82
2022/06/12 00:37:25;;;;;;;15.80;5.85;;;14.20;99.90;;;;;;5037465;28;20070;-82
2022/06/12 00:39:53;;;;;;;10.90;4.38;;;14.30;99.90;;;;;;5052323;28;20116;-82
2022/06/12 00:42:27;;;;;;;13.40;5.20;;;14.30;99.90;;;;;;5053531;28;20118;-82
2022/06/12 00:44:54;;;;;;;16.83;5.20;;;14.30;99.90;;;;;;5054209;28;20079;-82
2022/06/12 00:47:20;;;;;;;15.43;4.10;;;14.30;99.90;;;;;;5052593;28;20458;-83
2022/06/12 00:50:03;;;;;;;12.82;4.13;;;14.30;99.90;;;;;;5053353;28;20552;-82
2022/06/12 00:52:49;;;;;;;12.07;4.15;;;14.20;99.90;;;;;;5037068;28;20120;-83
2022/06/12 00:55:53;;;;;;;11.10;3.97;;;14.20;99.90;;;;;;5054056;28;20048;-82
2022/06/12 00:58:22;;;;;;;;;;;14.10;99.90;;;;;;5053452;28;20098;-82
2022/06/12 01:00:48;;;;;;;10.45;3.88;;;14.10;99.90;;;;;;5052834;28;20301;-83
2022/06/12 01:03:14;;;;;;;18.13;5.78;;;14.00;99.90;;;;;;5035405;28;20032;-82
2022/06/12 01:08:26;;;;;;;13.57;4.90;;;14.10;99.90;;;;;;5052375;28;20052;-83
2022/06/12 01:11:03;;;;;;;11.45;4.13;;;14.10;99.90;;;;;;5036276;28;20486;-82
2022/06/12 01:13:35;;;;;;;11.48;4.35;;;14.00;99.90;;;;;;5053325;28;20033;-82
2022/06/12 01:16:06;;;;;;;13.20;3.58;;;14.00;99.90;;;;;;5053059;28;20059;-82
2022/06/12 01:18:35;;;;;;;11.05;3.10;;;14.00;99.90;;;;;;5053176;28;20074;-82
2022/06/12 01:21:30;;;;;;;12.48;4.05;;;14.00;99.90;;;;;;5052174;28;20098;-82
2022/06/12 01:24:26;;;;;;;13.13;4.57;;;14.00;99.90;;;;;;5015612;28;20071;-82
2022/06/12 01:27:34;;;;;;;10.35;3.35;;;14.10;99.90;;;;;;4998950;28;20104;-82
2022/06/12 01:30:11;;;;;;;8.38;2.80;;;14.00;99.90;;;;;;5053022;28;20405;-82
2022/06/12 01:33:09;;;;;;;12.70;4.13;;;14.00;99.90;;;;;;5052254;28;20036;-82
2022/06/12 01:35:59;;;;;;;11.10;4.18;;;14.00;99.90;;;;;;5036683;28;20505;-82
2022/06/12 01:38:31;;;;;;;12.98;4.50;;;14.00;99.90;;;;;;5036386;28;20114;-82
2022/06/12 01:40:59;;;;;;;;;;;14.00;99.90;;;;;;5036814;28;20524;-82
2022/06/12 01:44:05;;;;;;;12.02;3.20;;;14.00;99.90;;;;;;5053566;28;20016;-82
2022/06/12 01:46:44;;;;;;;11.07;3.78;;;13.90;99.90;;;;;;5030914;28;20463;-82
2022/06/12 01:49:37;;;;;;;15.55;3.80;;;13.90;99.90;;;;;;5052947;28;20083;-82
2022/06/12 01:52:28;;;;;;;9.32;2.85;;;13.90;99.90;;;;;;5052107;28;20119;-82
2022/06/12 01:55:17;;;;;;;14.60;4.90;;;13.90;99.90;;;;;;5040188;28;20046;-82
2022/06/12 01:57:49;;;;;;;12.45;3.60;;;14.00;99.90;;;;;;5056282;28;20392;-83
2022/06/12 02:00:22;;;;;;;11.77;3.40;;;13.90;99.90;;;;;;5040522;28;20118;-82
2022/06/12 02:02:51;;;;;;;;;;;13.90;99.90;;;;;;5056507;28;20037;-82
2022/06/12 02:05:23;;;;;;;13.25;3.85;;;13.80;99.90;;;;;;5040659;28;19916;-83
2022/06/12 02:08:09;;;;;;;14.02;3.35;;;13.90;99.90;;;;;;5057008;28;20036;-83
2022/06/12 02:10:42;;;;;;;12.00;4.53;;;13.90;99.90;;;;;;5056062;28;20115;-82
2022/06/12 02:13:32;;;;;;;9.85;3.40;;;13.90;99.90;;;;;;5056263;28;20047;-82
2022/06/12 02:16:33;;;;;;;12.35;3.67;;;13.80;99.90;;;;;;5039498;28;20504;-82
2022/06/12 02:19:04;;;;;;;14.43;4.60;;;13.80;99.90;;;;;;5053198;28;20052;-83
2022/06/12 02:21:37;;;;;;;9.63;3.40;;;13.80;99.90;;;;;;5056130;28;20502;-82
2022/06/12 02:24:16;;;;;;;10.82;3.97;;;13.80;99.90;;;;;;5056035;28;20072;-83
2022/06/12 02:27:08;;;;;;;10.93;4.20;;;13.70;99.90;;;;;;5056102;28;20548;-82
2022/06/12 02:29:38;;;;;;;12.25;4.40;;;13.80;99.90;;;;;;5039413;28;20040;-82
2022/06/12 02:32:13;;;;;;;11.00;3.55;;;13.80;99.90;;;;;;5055577;28;20049;-82
2022/06/12 02:34:42;;;;;;;14.45;3.35;;;13.70;99.90;;;;;;5040062;28;20037;-82
2022/06/12 02:37:15;;;;;;;15.40;4.32;;;13.70;99.90;;;;;;5039731;28;20036;-83
2022/06/12 02:39:42;;;;;;;;;;;13.70;99.90;;;;;;5056043;28;20051;-82
2022/06/12 02:42:14;;;;;;;9.32;3.28;;;13.70;99.90;;;;;;5056524;28;20427;-83
2022/06/12 02:44:53;;;;;;;13.32;3.97;;;13.60;99.90;;;;;;5056207;28;20546;-83
2022/06/12 02:47:23;;;;;;;12.77;3.22;;;13.70;99.90;;;;;;5056048;28;20036;-82
2022/06/12 02:49:51;;;;;;;13.48;2.75;;;13.70;99.90;;;;;;5039646;28;20036;-82
2022/06/12 02:52:28;;;;;;;11.60;3.88;;;13.70;99.90;;;;;;5055276;28;20121;-82
2022/06/12 02:55:23;;;;;;;11.60;3.38;;;13.70;99.90;;;;;;5055877;28;20044;-82
2022/06/12 02:58:06;;;;;;;12.52;2.85;;;13.70;99.90;;;;;;5038565;28;20033;-82
2022/06/12 03:00:48;;;;;;;11.68;4.03;;;13.60;99.90;;;;;;5055678;28;20055;-82
2022/06/12 03:03:32;;;;;;;12.85;3.95;;;13.60;99.90;;;;;;5055513;28;20074;-83
2022/06/12 03:06:00;;;;;;;9.30;3.03;;;13.70;99.90;;;;;;5055745;28;20037;-82
2022/06/12 03:08:38;;;;;;;12.45;3.88;;;13.60;99.90;;;;;;5055676;28;20037;-82
2022/06/12 03:11:17;;;;;;;10.05;2.67;;;13.70;99.90;;;;;;5055062;28;20052;-82
2022/06/12 03:13:44;;;;;;;13.20;3.00;;;13.60;99.90;;;;;;5056030;28;20394;-82
2022/06/12 03:16:25;;;;;;;10.88;2.75;;;13.50;99.90;;;;;;5038272;28;20041;-82
2022/06/12 03:19:00;;;;;;;11.60;2.55;;;13.60;99.90;;;;;;5055486;28;20410;-82
2022/06/12 03:21:57;;;;;;;12.40;3.83;;;13.60;99.90;;;;;;5055069;28;20036;-83
2022/06/12 03:24:41;;;;;;;8.93;2.60;;;13.60;99.90;;;;;;5035452;28;20041;-82
2022/06/12 03:27:09;;;;;;;12.93;2.47;;;13.60;99.90;;;;;;5022328;28;20044;-82
2022/06/12 03:30:08;;;;;;;11.40;3.65;;;13.50;99.90;;;;;;5054612;28;20127;-82
2022/06/12 03:33:09;;;;;;;16.77;2.92;;;13.60;99.90;;;;;;5054681;28;20177;-82
2022/06/12 03:35:50;;;;;;;8.23;2.47;;;13.50;99.90;;;;;;5050651;28;20044;-82
2022/06/12 03:38:19;;;;;;;12.25;3.08;;;13.50;99.90;;;;;;5037666;28;20106;-82
2022/06/12 03:40:53;;;;;;;12.93;3.42;;;13.50;99.90;;;;;;5054859;28;20131;-82
2022/06/12 03:43:32;;;;;;;11.93;3.58;;;13.50;99.90;;;;;;5038898;28;20087;-82
2022/06/12 03:46:16;;;;;;;9.27;2.78;;;13.50;99.90;;;;;;5054307;28;20040;-82
2022/06/12 03:48:51;;;;;;;12.02;2.80;;;13.50;99.90;;;;;;5054827;28;20559;-82
2022/06/12 03:51:55;;;;;;;9.85;3.50;;;13.50;99.90;;;;;;5053895;28;20072;-82
2022/06/12 03:54:32;;;;;;;8.57;2.67;;;13.50;99.90;;;;;;4994092;28;20173;-82
2022/06/12 04:00:40;;;;;;;8.25;2.47;;;13.40;99.90;;;;;;5053756;28;20075;-82
2022/06/12 04:03:37;;;;;;;8.93;2.33;;;13.40;99.90;;;;;;5054735;28;20207;-82
2022/06/12 04:06:17;;;;;;;12.80;2.88;;;13.40;99.90;;;;;;5031793;28;20055;-82
2022/06/12 04:08:53;;;;;;;11.50;2.65;;;13.40;99.90;;;;;;5043638;28;20401;-82
2022/06/12 04:11:24;;;;;;;14.95;4.25;;;13.30;99.90;;;;;;5069340;28;20040;-82
2022/06/12 04:13:50;;;;;;;10.93;2.65;;;13.40;99.90;;;;;;5036820;28;20076;-83
2022/06/12 04:16:37;;;;;;;8.40;2.47;;;13.50;99.90;;;;;;5052800;28;20044;-82
2022/06/12 04:19:06;;;;;;;8.20;2.33;;;13.40;99.90;;;;;;5071597;28;20393;-82
2022/06/12 04:21:54;;;;;;;9.77;3.42;;;13.40;99.90;;;;;;5036976;28;20481;-82
2022/06/12 04:24:28;;;;;;;10.63;3.60;;;13.50;99.90;;;;;;5037549;28;20096;-82
2022/06/12 04:27:16;;;;;;;9.15;2.97;;;13.50;99.90;;;;;;5053514;28;20072;-83
2022/06/12 04:29:54;;;;;;;10.98;2.90;;;13.50;99.90;;;;;;5036171;28;20051;-82
2022/06/12 04:32:21;;;;;;;10.18;2.50;;;13.50;99.90;;;;;;5037337;28;20119;-82
2022/06/12 04:34:47;;;;;;;12.73;3.63;;;13.50;99.90;;;;;;5036214;28;20036;-82
2022/06/12 04:37:22;;;;;;;10.63;3.08;;;13.50;99.90;;;;;;5037035;28;20040;-82
2022/06/12 04:39:48;;;;;;;13.95;4.05;;;13.50;99.90;;;;;;5035607;28;20082;-82
2022/06/12 04:42:17;;;;;;;8.52;3.05;;;13.60;99.90;;;;;;5053663;28;20048;-83
2022/06/12 04:44:43;;;;;;;11.20;3.72;;;13.60;99.90;;;;;;5037095;28;20562;-83
2022/06/12 04:47:13;;;;;;;12.80;4.07;;;13.60;99.90;;;;;;5035643;28;20076;-82
2022/06/12 04:49:39;;;;;;;9.48;2.55;;;13.70;99.90;;;;;;5036567;28;20040;-82
2022/06/12 04:52:08;;;;;;;11.27;2.83;;;13.70;99.90;;;;;;5035659;28;20047;-83
2022/06/12 04:54:34;;;;;;;14.02;3.53;;;13.70;99.90;;;;;;5053455;28;20037;-82
2022/06/12 04:57:00;;;;;;;10.57;3.22;;;13.70;99.90;;;;;;5053077;28;20044;-82
2022/06/12 04:59:27;;;;;;;12.93;4.35;;;13.70;99.90;;;;;;5051999;28;20044;-82
2022/06/12 05:01:53;;;;;;;13.98;3.35;;;13.80;99.90;;;;;;5036347;28;20086;-82
2022/06/12 05:04:21;;;;;;;13.63;3.08;;;13.90;99.90;;;;;;5052809;28;20036;-83
2022/06/12 05:06:49;;;;;;;11.93;3.70;;;13.90;99.90;;;;;;5053044;28;20493;-83
2022/06/12 05:09:15;;;;;;;13.93;3.33;;;13.90;99.90;;;;;;5052119;28;20076;-83
2022/06/12 05:11:42;;;;;;;14.88;3.92;;;14.00;99.90;;;;;;5053262;28;20040;-83
2022/06/12 05:14:08;;;;;;;10.98;3.40;;;14.00;99.90;;;;;;5052475;28;20228;-82
2022/06/12 05:16:41;;;;;;;14.50;4.18;;;14.10;99.90;;;;;;5036550;28;20044;-83
2022/06/12 05:19:12;;;;;;;12.48;3.50;;;14.10;99.90;;;;;;5052834;28;20040;-83
2022/06/12 05:21:38;;;;;;;14.10;4.55;;;14.10;99.90;;;;;;5051948;28;20040;-83
2022/06/12 05:24:04;;;;;;;15.10;3.83;;;14.20;99.90;;;;;;5053415;28;20041;-83
2022/06/12 05:26:33;;;;;;;14.40;4.32;;;14.30;99.90;;;;;;5035870;28;20094;-83
2022/06/12 05:29:00;;;;;;;10.98;3.00;;;14.40;99.90;;;;;;5035285;28;20045;-83
2022/06/12 05:31:26;;;;;;;14.85;4.35;;;14.40;99.90;;;;;;5053089;28;20392;-83
2022/06/12 05:33:53;;;;;;;12.10;3.35;;;14.50;99.90;;;;;;5051915;28;20104;-83
2022/06/12 05:36:19;;;;;;;12.07;4.38;;;14.50;99.90;;;;;;5036204;28;20044;-83
2022/06/12 05:38:45;;;;;;;13.88;4.63;;;14.60;99.90;;;;;;5051663;28;20094;-83
2022/06/12 05:41:13;;;;;;;16.02;4.25;;;14.60;99.90;;;;;;5052422;28;20052;-83
2022/06/12 05:43:40;;;;;;;18.70;5.22;;;14.70;99.90;;;;;;5035568;28;20052;-83
2022/06/12 05:46:08;;;;;;;12.32;3.50;;;14.80;99.90;;;;;;5052299;28;20033;-83
2022/06/12 05:48:34;;;;;;;15.88;4.45;;;14.80;99.90;;;;;;5036258;28;20032;-83
2022/06/12 05:51:01;;;;;;;17.45;5.80;;;14.90;99.90;;;;;;5051855;28;20115;-84
2022/06/12 05:53:30;;;;;;;16.60;5.07;;;15.00;99.90;;;;;;5052349;28;20078;-83
2022/06/12 05:55:56;;;;;;;14.35;3.95;;;15.00;99.90;;;;;;5051973;28;20048;-83
2022/06/12 05:58:25;;;;;;;15.63;4.93;;;15.10;99.90;;;;;;5051881;28;20525;-82
2022/06/12 06:00:51;;;;;;;16.95;4.03;;;15.10;99.90;;;;;;5052239;28;20036;-83
2022/06/12 06:03:18;;;;;;;15.05;5.43;;;15.20;99.90;;;;;;5051833;28;20094;-83
2022/06/12 06:05:46;;;;;;;17.52;4.75;;;15.20;99.90;;;;;;5052743;28;20172;-82
2022/06/12 06:08:13;;;;;;;18.88;5.40;;;15.30;99.90;;;;;;5051869;28;20078;-83
2022/06/12 06:10:39;;;;;;;19.83;5.07;;;15.40;99.90;;;;;;5035356;28;20047;-83
2022/06/12 06:13:06;;;;;;;14.30;4.13;;;15.50;99.90;;;;;;5052518;28;20036;-83
2022/06/12 06:15:31;;;;;;;17.38;5.03;;;15.50;99.90;;;;;;5051616;28;20044;-83
2022/06/12 06:17:57;;;;;;;18.08;5.50;;;15.60;99.90;;;;;;5052606;28;20037;-82
2022/06/12 06:20:29;;;;;;;20.60;6.00;;;15.70;99.90;;;;;;5034728;28;20182;-82
2022/06/12 06:22:55;;;;;;;13.38;3.90;;;15.70;99.90;;;;;;5035614;28;20033;-83
2022/06/12 06:25:23;;;;;;;20.00;5.60;;;15.80;99.90;;;;;;5035862;28;20040;-83
2022/06/12 06:27:50;;;;;;;16.33;5.05;;;15.90;99.90;;;;;;5059292;28;20083;-83
2022/06/12 06:30:16;;;;;;;21.45;6.13;;;16.00;99.90;;;;;;5040436;28;20040;-82
2022/06/12 06:32:42;;;;;;;18.02;6.25;;;16.00;99.90;;;;;;5048683;28;20037;-83
2022/06/12 06:35:09;;;;;;;19.20;5.65;;;16.10;99.90;;;;;;5052074;28;20119;-83
2022/06/12 06:37:36;;;;;;;18.48;6.25;;;16.20;99.90;;;;;;5052286;28;20509;-83
2022/06/12 06:40:03;;;;;;;17.50;5.68;;;16.20;99.90;;;;;;5052901;28;20033;-83
2022/06/12 06:42:29;;;;;;;19.05;5.82;;;16.30;99.90;;;;;;5056062;28;20409;-83
2022/06/12 06:47:39;;;;;;;18.33;6.85;;;16.40;99.90;;;;;;5055925;28;20410;-83
2022/06/12 06:50:07;;;;;;;22.35;5.65;;;16.50;99.90;;;;;;5055266;28;20040;-82
2022/06/12 06:52:33;;;;;;;16.40;5.90;;;16.50;99.90;;;;;;5038641;28;20113;-83
2022/06/12 06:54:59;;;;;;;24.15;7.07;;;16.60;99.90;;;;;;5055793;28;20481;-83
2022/06/12 06:57:25;;;;;;;19.25;7.38;;;16.70;99.90;;;;;;5038476;28;20094;-83
2022/06/12 06:59:50;;;;;;;17.45;6.88;;;16.80;99.90;;;;;;5055373;28;20094;-84
2022/06/12 07:02:16;;;;;;;25.50;7.15;;;16.80;99.90;;;;;;5055786;28;20041;-83
2022/06/12 07:04:42;;;;;;;22.85;7.70;;;16.80;99.90;;;;;;5054645;28;20047;-83
2022/06/12 07:07:08;;;;;;;23.52;7.45;;;16.90;99.90;;;;;;5038822;28;20508;-83
2022/06/12 07:09:35;;;;;;;19.73;6.80;;;16.90;99.90;;;;;;5037971;28;20068;-83
2022/06/12 07:12:01;;;;;;;21.90;7.47;;;16.90;99.90;;;;;;5038631;28;20041;-83
2022/06/12 07:14:28;;;;;;;20.92;6.75;;;17.00;99.90;;;;;;5055004;28;20402;-83
2022/06/12 07:16:55;;;;;;;22.95;7.57;;;17.10;99.90;;;;;;5054917;28;20563;-83
2022/06/12 07:19:21;;;;;;;20.00;7.35;;;17.10;99.90;;;;;;5054226;28;20072;-83
2022/06/12 07:21:47;;;;;;;19.33;7.05;;;17.20;99.90;;;;;;5054358;28;20082;-83
2022/06/12 07:24:12;;;;;;;23.55;8.00;;;17.30;99.90;;;;;;5055035;28;20047;-83
2022/06/12 07:26:42;;;;;;;25.67;7.82;;;17.30;99.90;;;;;;5038180;28;20519;-83
2022/06/12 07:29:08;;;;;;;26.10;7.75;;;17.40;99.90;;;;;;5054195;28;20033;-83
2022/06/12 07:31:34;;;;;;;25.42;6.97;;;17.50;99.90;;;;;;5054965;28;20044;-83
2022/06/12 07:34:01;;;;;;;25.02;7.32;;;17.60;99.90;;;;;;5037270;28;20397;-83
2022/06/12 07:36:29;;;;;;;16.73;6.15;;;17.60;99.90;;;;;;5054865;28;20079;-83
2022/06/12 07:38:55;;;;;;;20.48;7.22;;;17.70;99.90;;;;;;5055072;28;20044;-83
2022/06/12 07:41:21;;;;;;;21.65;6.80;;;17.70;99.90;;;;;;5053360;28;20051;-84
2022/06/12 07:43:48;;;;;;;21.48;7.72;;;17.80;99.90;;;;;;5054970;28;20048;-83
2022/06/12 07:46:17;;;;;;;24.35;7.30;;;17.90;99.90;;;;;;5053639;28;20067;-83
2022/06/12 07:48:44;;;;;;;22.00;7.15;;;17.90;99.90;;;;;;5055069;28;20036;-83
2022/06/12 07:51:13;;;;;;;22.42;7.20;;;18.00;99.90;;;;;;5053975;28;20041;-83
2022/06/12 07:53:40;;;;;;;20.05;7.10;;;18.00;99.90;;;;;;5052574;28;20123;-84
2022/06/12 07:56:07;;;;;;;20.83;6.35;;;18.20;99.90;;;;;;5038179;28;20040;-84
2022/06/12 07:58:33;;;;;;;20.58;7.15;;;18.20;99.90;;;;;;5054372;28;20056;-83
2022/06/12 08:01:03;;;;;;;21.52;7.60;;;18.20;99.90;;;;;;5053795;28;20041;-83
2022/06/12 08:03:30;;;;;;;21.30;7.50;;;18.30;99.90;;;;;;5055119;28;20028;-83
2022/06/12 08:05:56;;;;;;;21.58;7.20;;;18.40;99.90;;;;;;5036899;28;20044;-84
2022/06/12 08:08:22;;;;;;;19.52;7.20;;;18.40;99.90;;;;;;5062458;28;20040;-83
2022/06/12 08:10:48;;;;;;;19.55;7.03;;;18.40;99.90;;;;;;5046644;28;20041;-83
2022/06/12 08:13:14;;;;;;;17.05;6.70;;;18.40;99.90;;;;;;5056396;28;20080;-84
2022/06/12 08:15:44;;;;;;;20.52;6.93;;;18.40;99.90;;;;;;5038027;28;20044;-84
2022/06/12 08:18:10;;;;;;;19.85;6.75;;;18.50;99.90;;;;;;5037489;28;20032;-84
2022/06/12 08:20:38;;;;;;;18.15;6.75;;;18.50;99.90;;;;;;5053476;28;20036;-84
2022/06/12 08:23:26;;;;;;;39.78;8.10;;;18.60;99.90;;;;;;5054501;28;20124;-84
2022/06/12 08:25:55;;;;;;;17.73;6.57;;;18.70;99.90;;;;;;5036671;28;20032;-84
2022/06/12 08:28:22;;;;;;;17.33;6.70;;;18.70;99.90;;;;;;5054408;28;20032;-84
2022/06/12 08:30:47;;;;;;;17.33;6.95;;;18.80;99.90;;;;;;5036948;28;20076;-83
2022/06/12 08:33:13;;;;;;;20.33;6.65;;;18.80;99.90;;;;;;5053525;28;20079;-84
2022/06/12 08:35:39;;;;;;;21.13;6.95;;;18.90;99.90;;;;;;5054193;28;20127;-84
2022/06/12 08:38:05;;;;;;;20.35;6.47;;;19.00;99.90;;;;;;5054065;28;20182;-84
2022/06/12 08:40:50;;;;;;;19.83;6.65;;;19.00;99.90;;;;;;5053594;28;20548;-84
2022/06/12 08:43:24;;;;;;;21.50;8.30;;;19.10;99.90;;;;;;5037179;28;20043;-84
2022/06/12 08:45:51;;;;;;;20.08;7.03;;;19.10;99.90;;;;;;5053436;28;20098;-84
2022/06/12 08:48:51;;;;;;;22.60;6.97;;;19.10;99.90;;;;;;5060876;28;20537;-84
2022/06/12 08:51:44;;;;;;;20.27;6.18;;;19.20;99.90;;;;;;5047002;28;20044;-84
2022/06/12 08:54:45;;;;;;;17.08;6.53;;;19.20;99.90;;;;;;5058449;28;20041;-84
2022/06/12 08:57:17;;;;;;;19.00;6.22;;;19.30;99.90;;;;;;5027657;28;20055;-84
2022/06/12 09:00:13;;;;;;;19.70;6.05;;;19.30;99.90;;;;;;5066922;28;20089;-84
2022/06/12 09:02:42;;;;;;;15.98;5.47;;;19.30;99.90;;;;;;5023470;28;20088;-84
2022/06/12 09:05:11;;;;;;;18.33;5.88;;;19.30;99.90;;;;;;5053372;28;20044;-84
2022/06/12 09:07:55;;;;;;;20.08;6.53;;;19.40;99.90;;;;;;5051890;28;20052;-84
2022/06/12 09:10:49;;;;;;;14.43;4.90;;;19.50;99.90;;;;;;5055771;28;20032;-84
2022/06/12 09:13:34;;;;;;;15.75;5.43;;;19.50;99.90;;;;;;5059736;28;20051;-84
2022/06/12 09:16:17;;;;;;;22.38;5.95;;;19.70;99.90;;;;;;5046283;28;20057;-84
2022/06/12 09:19:00;;;;;;;18.40;5.50;;;19.70;99.90;;;;;;5058912;28;20055;-86
2022/06/12 09:21:41;;;;;;;18.90;5.88;;;19.80;99.90;;;;;;5044232;28;20062;-87
2022/06/12 09:24:21;;;;;;;16.63;5.97;;;19.90;99.90;;;;;;5045259;28;20076;-84
2022/06/12 09:27:01;;;;;;;17.17;6.07;;;20.00;99.90;;;;;;5056467;28;20395;-84
2022/06/12 09:29:42;;;;;;;16.38;5.40;;;19.90;99.90;;;;;;5052189;28;20443;-84
2022/06/12 09:32:31;;;;;;;14.90;5.13;;;20.00;99.90;;;;;;5035493;28;20040;-84
2022/06/12 09:35:28;;;;;;;17.35;5.70;;;20.10;99.90;;;;;;5035884;28;20116;-84
2022/06/12 09:38:18;;;;;;;14.07;4.82;;;20.10;99.90;;;;;;5051563;28;20512;-84
2022/06/12 09:41:12;;;;;;;13.90;4.95;;;20.20;99.90;;;;;;5051859;28;20081;-84
2022/06/12 09:44:10;;;;;;;16.80;4.97;;;20.20;99.90;;;;;;5052164;28;20047;-84
2022/06/12 09:47:08;;;;;;;15.23;3.90;;;20.40;99.90;;;;;;5016458;28;20033;-84
2022/06/12 09:49:58;;;;;;;11.38;3.70;;;20.30;99.90;;;;;;5063651;28;20497;-84
2022/06/12 09:52:48;;;;;;;15.77;3.97;;;20.20;99.90;;;;;;5058889;28;20068;-84
2022/06/12 09:55:22;;;;;;;13.48;3.60;;;20.30;99.90;;;;;;5055868;28;20044;-84
2022/06/12 09:57:51;;;;;;;12.77;3.45;;;20.40;99.90;;;;;;5051255;28;20036;-84
2022/06/12 10:00:22;;;;;;;11.25;3.15;;;20.40;99.90;;;;;;5034889;28;20098;-84
2022/06/12 10:03:11;;;;;;;11.77;3.05;;;20.40;99.90;;;;;;5052232;28;20048;-84
2022/06/12 10:05:56;;;;;;;13.02;3.33;;;20.30;99.90;;;;;;5050812;28;20087;-84
2022/06/12 10:08:25;;;;;;;12.30;3.88;;;20.40;99.90;;;;;;5029823;28;20044;-84
2022/06/12 10:11:08;;;;;;;13.38;3.72;;;20.40;99.90;;;;;;5042058;28;20104;-84
2022/06/12 10:13:52;;;;;;;12.05;3.15;;;20.60;99.90;;;;;;5048900;28;20039;-84
2022/06/12 10:16:33;;;;;;;12.05;3.13;;;20.80;99.50;;;;;;5072786;28;20436;-84
2022/06/12 10:19:12;;;;;;;12.52;3.05;;;20.80;99.90;;;;;;5056320;28;20043;-84
2022/06/12 10:21:42;;;;;;;12.07;3.20;;;20.80;99.90;;;;;;5054740;28;20048;-84
2022/06/12 10:24:10;;;;;;;11.23;3.00;;;20.70;99.90;;;;;;5056020;28;20068;-84
2022/06/12 10:26:36;;;;;;;11.77;3.40;;;20.70;99.40;;;;;;5039096;28;20044;-84
2022/06/12 10:29:14;;;;;;;11.02;3.33;;;20.70;99.90;;;;;;5055242;28;20040;-84
2022/06/12 10:31:50;;;;;;;12.63;3.25;;;20.80;99.90;;;;;;5055613;28;20127;-84
2022/06/12 10:34:21;;;;;;;12.55;3.30;;;20.90;98.70;;;;;;5055452;28;20044;-83
2022/06/12 10:36:47;;;;;;;11.35;2.90;;;21.10;99.90;;;;;;5055297;28;20075;-83
2022/06/12 10:39:19;;;;;;;12.57;2.97;;;21.30;99.90;;;;;;5037243;28;20037;-84
2022/06/12 10:42:08;;;;;;;14.93;3.77;;;21.50;99.50;;;;;;5055928;28;20048;-84
2022/06/12 10:44:57;;;;;;;10.77;2.97;;;21.40;99.90;;;;;;5038022;28;20509;-84
2022/06/12 10:47:26;;;;;;;10.05;2.72;;;21.30;99.60;;;;;;5059524;28;20609;-84
2022/06/12 10:50:19;;;;;;;12.27;3.10;;;21.10;98.20;;;;;;5054009;28;20044;-84
2022/06/12 10:53:05;;;;;;;11.50;2.80;;;21.00;99.20;;;;;;5046356;28;20045;-83
2022/06/12 10:55:58;;;;;;;12.93;3.50;;;20.90;99.90;;;;;;5039161;28;20148;-84
2022/06/12 10:58:49;;;;;;;11.43;3.28;;;20.90;99.90;;;;;;5064131;28;20048;-84
2022/06/12 11:01:31;;;;;;;11.43;3.05;;;20.80;99.40;;;;;;5035617;28;20076;-84
2022/06/12 11:04:37;;;;;;;11.10;2.95;;;20.70;99.90;;;;;;5053654;28;20033;-84
2022/06/12 11:07:16;;;;;;;11.60;2.97;;;20.70;98.90;;;;;;5044877;28;20052;-84
2022/06/12 11:09:53;;;;;;;10.45;3.00;;;20.80;99.90;;;;;;5054000;28;20116;-83
2022/06/12 11:12:38;;;;;;;10.48;2.97;;;21.00;99.90;;;;;;5055150;28;20033;-84
2022/06/12 11:15:27;;;;;;;10.30;2.70;;;21.20;99.90;;;;;;5054638;28;20033;-84
2022/06/12 11:18:01;;;;;;;11.55;2.90;;;21.10;94.30;;;;;;5054738;28;20037;-84
2022/06/12 11:20:58;;;;;;;12.35;3.55;;;21.10;98.00;;;;;;5037648;28;20040;-84
2022/06/12 11:23:43;;;;;;;12.25;2.63;;;21.10;99.90;;;;;;5054382;28;20045;-84
2022/06/12 11:26:24;;;;;;;9.38;2.25;;;21.10;99.90;;;;;;5054616;28;20521;-84
2022/06/12 11:29:20;;;;;;;10.27;2.42;;;21.30;98.90;;;;;;5037250;28;20036;-84
2022/06/12 11:32:00;;;;;;;10.63;2.90;;;21.40;96.40;;;;;;5037950;28;20079;-84
2022/06/12 11:35:00;;;;;;;8.38;2.45;;;21.50;96.30;;;;;;5054336;28;20049;-83
2022/06/12 11:37:55;;;;;;;11.15;2.30;;;21.60;96.60;;;;;;5054736;28;20053;-84
2022/06/12 11:40:53;;;;;;;9.52;2.35;;;21.60;88.30;;;;;;5053894;28;20087;-84
2022/06/12 11:43:33;;;;;;;10.65;2.70;;;21.60;88.40;;;;;;5060332;28;20120;-84
2022/06/12 11:46:15;;;;;;;11.13;2.40;;;21.70;89.30;;;;;;5060968;28;20040;-84
2022/06/12 11:48:59;;;;;;;8.75;2.33;;;21.60;84.20;;;;;;5061468;28;20131;-85
2022/06/12 11:52:07;;;;;;;8.27;2.33;;;21.60;79.90;;;;;;5058496;28;20071;-85
2022/06/12 11:54:57;;;;;;;9.32;2.15;;;21.70;92.30;;;;;;5060150;28;20045;-85
2022/06/12 11:57:32;;;;;;;10.05;2.47;;;21.80;88.60;;;;;;5054239;28;20124;-85
2022/06/12 12:00:12;;;;;;;8.20;2.00;;;21.90;89.00;;;;;;5054397;28;20055;-85
2022/06/12 12:02:56;;;;;;;10.15;2.67;;;22.00;89.30;;;;;;5038651;28;20044;-85
2022/06/12 12:05:51;;;;;;;9.52;2.70;;;22.10;91.50;;;;;;5053576;28;20044;-85
2022/06/12 12:08:38;;;;;;;8.80;2.15;;;22.20;79.60;;;;;;5055361;28;20440;-85
2022/06/12 12:11:08;;;;;;;9.68;2.25;;;22.20;81.40;;;;;;5053562;28;20137;-85
2022/06/12 12:13:56;;;;;;;10.00;2.03;;;22.20;76.30;;;;;;5054341;28;20090;-85
2022/06/12 12:16:32;;;;;;;9.00;2.40;;;22.20;83.10;;;;;;5036959;28;20041;-85
2022/06/12 12:19:04;;;;;;;8.82;2.22;;;22.20;84.70;;;;;;5054443;28;20037;-84
2022/06/12 12:21:45;;;;;;;10.73;2.40;;;22.30;78.00;;;;;;5053964;28;20029;-85
2022/06/12 12:24:15;;;;;;;9.23;2.38;;;22.30;83.20;;;;;;5037161;28;20042;-85
2022/06/12 12:26:43;;;;;;;10.45;2.22;;;22.40;86.50;;;;;;5054329;28;20540;-85
2022/06/12 12:29:17;;;;;;;8.10;1.92;;;22.30;72.50;;;;;;5036550;28;20552;-84
2022/06/12 12:31:46;;;;;;;8.65;2.50;;;22.30;80.60;;;;;;5054392;28;20049;-85
2022/06/12 12:34:13;;;;;;;8.60;2.33;;;22.20;74.30;;;;;;5053738;28;20135;-85
2022/06/12 12:42:28;;;;;;;8.75;2.30;;;22.40;82.30;;;;;;5052892;28;20056;-85
2022/06/12 12:44:55;;;;;;;8.50;2.10;;;22.40;71.30;;;;;;5054110;28;20386;-85
2022/06/12 12:47:24;;;;;;;9.70;2.25;;;22.40;74.50;;;;;;5034530;28;20041;-84
2022/06/12 12:50:02;;;;;;;9.98;2.15;;;22.40;75.30;;;;;;5057069;28;20051;-85
2022/06/12 12:52:40;;;;;;;8.65;1.80;;;22.40;69.50;;;;;;5040249;28;20039;-85
2022/06/12 12:55:21;;;;;;;9.82;2.35;;;22.50;67.20;;;;;;5028005;28;20044;-85
2022/06/12 12:57:47;;;;;;;9.30;1.55;;;22.60;67.90;;;;;;5048337;28;20089;-85
2022/06/12 13:00:15;;;;;;;10.18;1.90;;;22.60;64.30;;;;;;5028511;28;20028;-85
2022/06/12 13:02:53;;;;;;;7.80;1.90;;;22.60;64.90;;;;;;5034856;28;20036;-85
2022/06/12 13:05:23;;;;;;;10.80;2.22;;;22.70;66.30;;;;;;5031332;28;20512;-85
2022/06/12 13:07:54;;;;;;;8.10;2.00;;;22.70;64.70;;;;;;5035555;28;20044;-85
2022/06/12 13:10:57;;;;;;;7.68;2.00;;;22.80;65.40;;;;;;5051125;28;20032;-85
2022/06/12 13:13:37;;;;;;;11.35;2.53;;;22.80;69.00;;;;;;5006020;28;20041;-85
2022/06/12 13:16:40;;;;;;;8.13;2.08;;;22.70;65.20;;;;;;5052690;28;20491;-85
2022/06/12 13:19:36;;;;;;;6.47;1.60;;;22.50;66.60;;;;;;5032995;28;20114;-85
2022/06/12 13:22:14;;;;;;;8.38;2.17;;;22.50;64.10;;;;;;5038139;28;20045;-85
2022/06/12 13:25:04;;;;;;;8.50;2.22;;;22.50;64.80;;;;;;5035885;28;20409;-84
2022/06/12 13:27:33;;;;;;;9.10;2.30;;;22.40;65.00;;;;;;5052192;28;20075;-84
2022/06/12 13:30:00;;;;;;;10.68;2.00;;;22.40;68.20;;;;;;5035381;28;20032;-85
2022/06/12 13:32:28;;;;;;;8.02;1.85;;;22.50;65.40;;;;;;5036236;28;20040;-84
2022/06/12 13:35:03;;;;;;;12.32;2.97;;;22.50;65.70;;;;;;5035047;28;20032;-85
2022/06/12 13:37:37;;;;;;;8.45;1.75;;;22.60;64.30;;;;;;5036433;28;20040;-84